Time;durP1;ratioP1;P1;durP2;ratioP2;P2;SDS_P1;SDS_P2;PMS_P1;PMS_P2;Temp;Humidity;BMP_temperature;BMP_pressure;BME280_temperature;BME280_humidity;BME280_pressure;Samples;Min_cycle;Max_cycle;Signal;HPM_P1;HPM_P2
2023/04/02 00:00:59;;;;;;;;;;;19.40;53.00;;;;;;4934324;29;20052;-65
2023/04/02 00:03:25;;;;;;;2.53;1.30;;;19.40;53.00;;;;;;4935030;29;19933;-64
2023/04/02 00:05:50;;;;;;;1.80;0.95;;;19.40;53.20;;;;;;4914911;29;20048;-65
2023/04/02 00:08:22;;;;;;;2.42;1.10;;;19.40;53.00;;;;;;4898112;29;20055;-65
2023/04/02 00:10:56;;;;;;;2.25;1.10;;;19.40;52.90;;;;;;4917477;29;20047;-64
2023/04/02 00:13:21;;;;;;;2.10;1.20;;;19.40;52.80;;;;;;4917417;29;20496;-65
2023/04/02 00:15:48;;;;;;;2.00;1.15;;;19.40;52.90;;;;;;4917138;29;20044;-64
2023/04/02 00:18:16;;;;;;;2.67;1.27;;;19.40;52.80;;;;;;4901789;29;20040;-65
2023/04/02 00:20:44;;;;;;;2.63;1.20;;;19.40;52.80;;;;;;4937423;29;20043;-64
2023/04/02 00:23:13;;;;;;;3.33;1.42;;;19.40;52.80;;;;;;4920655;29;20070;-65
2023/04/02 00:25:43;;;;;;;3.10;1.23;;;19.40;52.70;;;;;;4938151;29;20035;-64
2023/04/02 00:28:19;;;;;;;2.65;1.20;;;19.40;52.80;;;;;;4937123;29;20051;-65
2023/04/02 00:30:50;;;;;;;2.25;1.33;;;19.30;52.70;;;;;;4920750;29;20051;-65
2023/04/02 00:33:17;;;;;;;3.33;1.20;;;19.30;52.70;;;;;;4918645;29;20148;-65
2023/04/02 00:35:43;;;;;;;1.90;1.08;;;19.30;52.70;;;;;;4885741;29;20118;-65
2023/04/02 00:38:42;;;;;;;2.08;1.10;;;19.30;52.60;;;;;;4901665;29;20183;-64
2023/04/02 00:41:12;;;;;;;2.22;1.25;;;19.30;52.50;;;;;;4904707;29;20106;-65
2023/04/02 00:43:38;;;;;;;2.80;1.10;;;19.30;52.50;;;;;;4901720;29;20131;-65
2023/04/02 00:46:09;;;;;;;2.85;1.00;;;19.30;52.50;;;;;;4901078;29;20084;-65
2023/04/02 00:48:47;;;;;;;3.25;1.30;;;19.30;52.40;;;;;;4901583;29;20047;-65
2023/04/02 00:51:15;;;;;;;3.17;1.20;;;19.30;52.40;;;;;;4901305;29;20086;-65
2023/04/02 00:53:41;;;;;;;1.60;1.00;;;19.20;52.40;;;;;;4918506;29;20052;-64
2023/04/02 00:56:13;;;;;;;1.60;1.00;;;19.20;52.30;;;;;;4919421;29;20048;-65
2023/04/02 00:58:39;;;;;;;2.20;1.30;;;19.20;52.20;;;;;;4920203;29;20047;-64
2023/04/02 01:01:17;;;;;;;1.95;1.17;;;19.30;52.30;;;;;;4937105;29;20043;-65
2023/04/02 01:03:52;;;;;;;2.45;1.20;;;19.20;52.20;;;;;;4937136;29;20126;-65
2023/04/02 01:06:18;;;;;;;2.17;1.10;;;19.20;52.20;;;;;;4905416;29;20090;-65
2023/04/02 01:09:09;;;;;;;2.53;1.20;;;19.20;52.20;;;;;;4920568;29;20075;-65
2023/04/02 01:11:40;;;;;;;1.38;0.93;;;19.20;52.20;;;;;;4919566;29;20388;-64
2023/04/02 01:14:33;;;;;;;2.45;1.30;;;19.20;52.10;;;;;;4936597;29;20134;-64
2023/04/02 01:17:27;;;;;;;2.08;1.00;;;19.20;52.10;;;;;;4907091;29;20039;-65
2023/04/02 01:20:11;;;;;;;3.25;1.35;;;19.20;52.10;;;;;;4921188;29;20051;-64
2023/04/02 01:22:46;;;;;;;1.90;1.10;;;19.20;52.10;;;;;;4919993;29;20048;-65
2023/04/02 01:25:42;;;;;;;1.95;1.00;;;19.20;52.10;;;;;;4920428;29;20051;-64
2023/04/02 01:28:30;;;;;;;3.10;0.88;;;19.20;52.00;;;;;;4936720;29;20050;-64
2023/04/02 01:30:56;;;;;;;;;;;19.20;52.00;;;;;;4919051;29;20039;-64
2023/04/02 01:33:24;;;;;;;3.45;1.13;;;19.10;51.90;;;;;;4903933;29;20025;-64
2023/04/02 01:35:56;;;;;;;2.33;1.00;;;19.10;52.10;;;;;;4919407;29;20054;-65
2023/04/02 01:38:31;;;;;;;2.28;0.88;;;19.10;51.90;;;;;;4919895;29;20134;-65
2023/04/02 01:41:33;;;;;;;1.92;1.02;;;19.10;51.80;;;;;;4919549;29;20539;-65
2023/04/02 01:44:10;;;;;;;2.70;1.25;;;19.10;51.60;;;;;;4921551;29;20126;-65
2023/04/02 01:46:39;;;;;;;2.77;1.10;;;19.10;51.70;;;;;;4903585;29;20457;-64
2023/04/02 01:49:17;;;;;;;1.88;0.90;;;19.10;51.70;;;;;;4903993;29;20063;-65
2023/04/02 01:51:44;;;;;;;2.75;1.10;;;19.10;51.60;;;;;;4919573;29;20040;-65
2023/04/02 01:54:10;;;;;;;1.75;1.08;;;19.10;51.60;;;;;;4935686;29;20051;-64
2023/04/02 01:56:35;;;;;;;1.95;1.10;;;19.10;51.50;;;;;;4885234;29;20127;-64
2023/04/02 01:59:02;;;;;;;1.83;0.90;;;19.10;51.40;;;;;;4916338;29;20131;-64
2023/04/02 02:01:32;;;;;;;2.15;1.10;;;19.10;51.30;;;;;;4900769;29;20076;-64
2023/04/02 02:03:57;;;;;;;2.58;1.00;;;19.10;51.20;;;;;;4899772;29;20048;-64
2023/04/02 02:06:23;;;;;;;2.22;1.00;;;19.10;51.20;;;;;;4883429;29;20091;-64
2023/04/02 02:08:53;;;;;;;1.60;0.90;;;19.10;51.00;;;;;;4899343;29;20488;-64
2023/04/02 02:11:21;;;;;;;3.28;1.13;;;19.10;51.00;;;;;;4900786;29;20052;-65
2023/04/02 02:13:51;;;;;;;1.60;0.80;;;19.10;50.90;;;;;;4916442;29;20139;-64
2023/04/02 02:16:19;;;;;;;2.30;1.05;;;19.10;50.90;;;;;;4899750;29;20613;-64
2023/04/02 02:18:47;;;;;;;3.25;1.00;;;19.10;50.80;;;;;;4900697;29;20054;-65
2023/04/02 02:21:17;;;;;;;1.88;0.80;;;19.10;50.70;;;;;;4899478;29;20527;-65
2023/04/02 02:23:42;;;;;;;1.70;0.70;;;19.10;50.70;;;;;;4900874;29;20048;-64
2023/04/02 02:26:08;;;;;;;2.95;0.90;;;19.10;50.80;;;;;;4899695;29;20044;-65
2023/04/02 02:28:35;;;;;;;2.50;1.00;;;19.20;51.00;;;;;;4899573;29;20055;-64
2023/04/02 02:31:17;;;;;;;3.60;1.00;;;19.10;50.90;;;;;;4899932;29;20167;-65
2023/04/02 02:33:46;;;;;;;2.00;0.80;;;19.20;51.10;;;;;;4900286;29;20404;-64
2023/04/02 02:36:38;;;;;;;1.88;0.85;;;19.20;51.00;;;;;;4899186;29;20040;-64
2023/04/02 02:39:36;;;;;;;2.03;0.90;;;19.20;51.00;;;;;;4885682;29;20052;-64
2023/04/02 02:42:13;;;;;;;1.65;0.98;;;19.20;51.10;;;;;;4883339;29;20048;-65
2023/04/02 02:44:42;;;;;;;3.20;1.05;;;19.20;51.00;;;;;;4901064;29;20522;-64
2023/04/02 02:47:11;;;;;;;1.95;0.65;;;19.20;50.90;;;;;;4918813;29;20110;-65
2023/04/02 02:49:39;;;;;;;2.05;0.80;;;19.20;50.90;;;;;;4918179;29;20047;-64
2023/04/02 02:52:08;;;;;;;1.63;0.93;;;19.20;50.90;;;;;;4918554;29;20079;-64
2023/04/02 02:54:35;;;;;;;3.20;0.85;;;19.30;50.90;;;;;;4935335;29;20087;-65
2023/04/02 02:57:02;;;;;;;2.13;0.70;;;19.30;50.90;;;;;;4915781;29;20074;-65
2023/04/02 02:59:29;;;;;;;2.65;0.90;;;19.30;50.80;;;;;;4899818;29;20048;-64
2023/04/02 03:01:54;;;;;;;2.15;0.90;;;19.30;50.80;;;;;;4917551;29;20075;-65
2023/04/02 03:04:21;;;;;;;2.30;0.70;;;19.40;50.80;;;;;;4917389;29;20074;-65
2023/04/02 03:06:56;;;;;;;2.20;1.00;;;19.40;50.80;;;;;;4918477;29;20044;-65
2023/04/02 03:09:32;;;;;;;2.85;0.90;;;19.40;50.80;;;;;;4917865;29;20048;-65
2023/04/02 03:12:35;;;;;;;3.05;0.80;;;19.40;50.80;;;;;;4918135;29;20111;-65
2023/04/02 03:15:30;;;;;;;3.15;1.00;;;19.40;50.80;;;;;;4906532;29;20048;-65
2023/04/02 03:18:00;;;;;;;2.50;1.10;;;19.40;50.70;;;;;;4904184;29;20184;-64
2023/04/02 03:20:32;;;;;;;2.38;0.70;;;19.40;50.80;;;;;;4917875;29;20167;-65
2023/04/02 03:23:16;;;;;;;1.80;0.80;;;19.50;50.80;;;;;;4934938;29;20056;-65
2023/04/02 03:25:46;;;;;;;2.08;0.82;;;19.50;50.70;;;;;;4935060;29;20067;-65
2023/04/02 03:28:15;;;;;;;3.50;0.73;;;19.50;50.70;;;;;;4902036;29;20043;-65
2023/04/02 03:30:45;;;;;;;1.45;0.70;;;19.50;50.70;;;;;;4917406;29;20077;-65
2023/04/02 03:33:34;;;;;;;1.95;0.63;;;19.50;50.60;;;;;;4918244;29;20043;-64
2023/04/02 03:36:17;;;;;;;2.65;0.80;;;19.50;50.60;;;;;;4918452;29;20040;-65
2023/04/02 03:38:45;;;;;;;1.38;0.60;;;19.60;50.60;;;;;;4934369;29;20051;-65
2023/04/02 03:41:17;;;;;;;3.08;0.80;;;19.60;50.60;;;;;;4934456;29;20059;-65
2023/04/02 03:43:45;;;;;;;1.45;0.80;;;19.60;50.40;;;;;;4918183;29;20492;-65
2023/04/02 03:46:38;;;;;;;1.23;0.80;;;19.60;50.40;;;;;;4933832;29;20558;-65
2023/04/02 03:49:12;;;;;;;4.00;1.05;;;19.60;50.30;;;;;;4933679;29;20083;-64
2023/04/02 03:52:04;;;;;;;1.80;0.55;;;19.60;50.30;;;;;;4918046;29;20051;-65
2023/04/02 03:54:30;;;;;;;1.25;0.55;;;19.60;50.20;;;;;;4936966;29;20078;-65
2023/04/02 03:56:55;;;;;;;2.78;0.70;;;19.70;50.30;;;;;;4905632;29;20078;-65
2023/04/02 03:59:33;;;;;;;2.15;0.70;;;19.70;50.20;;;;;;4904904;29;20047;-65
2023/04/02 04:02:05;;;;;;;2.75;0.80;;;19.70;50.10;;;;;;4920881;29;20040;-64
2023/04/02 04:04:30;;;;;;;1.58;0.70;;;19.70;50.10;;;;;;4920674;29;20095;-67
2023/04/02 04:06:56;;;;;;;1.85;0.93;;;19.70;50.10;;;;;;4917368;29;20059;-65
2023/04/02 04:09:23;;;;;;;1.00;0.60;;;19.70;50.00;;;;;;4886316;29;20503;-64
2023/04/02 04:11:51;;;;;;;2.40;0.70;;;19.70;50.00;;;;;;4919319;29;20496;-65
2023/04/02 04:14:36;;;;;;;1.45;0.52;;;19.70;50.00;;;;;;4901388;29;20099;-65
2023/04/02 04:17:08;;;;;;;2.08;0.70;;;19.70;49.90;;;;;;4902342;29;20122;-66
2023/04/02 04:20:11;;;;;;;2.78;0.75;;;19.70;49.80;;;;;;4886123;29;20119;-64
2023/04/02 04:22:36;;;;;;;3.00;0.88;;;19.70;49.70;;;;;;4875621;29;20055;-65
2023/04/02 04:25:04;;;;;;;1.80;0.70;;;19.70;49.70;;;;;;4919092;29;20099;-65
2023/04/02 04:27:33;;;;;;;1.63;0.70;;;19.80;49.60;;;;;;4936938;29;20094;-65
2023/04/02 04:30:04;;;;;;;2.00;0.63;;;19.80;49.60;;;;;;4937894;29;20052;-64
2023/04/02 04:32:49;;;;;;;3.92;0.70;;;19.80;49.60;;;;;;4921320;29;20043;-64
2023/04/02 04:35:24;;;;;;;1.75;0.57;;;19.80;49.60;;;;;;4920001;29;20052;-65
2023/04/02 04:37:57;;;;;;;1.77;0.80;;;19.80;49.50;;;;;;4921264;29;20031;-65
2023/04/02 04:40:36;;;;;;;0.93;0.57;;;19.80;49.50;;;;;;4921308;29;20559;-64
2023/04/02 04:43:06;;;;;;;3.58;0.80;;;19.80;49.40;;;;;;4920280;29;20508;-65
2023/04/02 04:45:50;;;;;;;2.15;0.80;;;19.80;49.30;;;;;;4920868;29;20048;-64
2023/04/02 04:48:21;;;;;;;1.23;0.68;;;19.80;49.20;;;;;;4920165;29;20507;-64
2023/04/02 04:50:52;;;;;;;1.15;0.65;;;19.80;49.10;;;;;;4921154;29;20043;-64
2023/04/02 04:53:25;;;;;;;1.80;0.60;;;19.90;49.10;;;;;;4920345;29;20478;-65
2023/04/02 04:55:55;;;;;;;1.88;0.80;;;19.80;49.00;;;;;;4936816;29;20040;-65
2023/04/02 04:58:26;;;;;;;1.65;0.60;;;19.80;48.90;;;;;;4920625;29;20048;-65
2023/04/02 05:01:04;;;;;;;1.30;0.73;;;19.90;49.00;;;;;;4904451;29;20040;-64
2023/04/02 05:03:34;;;;;;;4.40;0.70;;;19.90;48.90;;;;;;4919886;29;20051;-64
2023/04/02 05:06:08;;;;;;;2.95;0.73;;;19.90;48.80;;;;;;4936600;29;20509;-65
2023/04/02 05:08:35;;;;;;;1.48;0.70;;;19.90;48.80;;;;;;4920953;29;20043;-64
2023/04/02 05:11:02;;;;;;;2.60;0.60;;;19.90;48.80;;;;;;4919209;29;20500;-64
2023/04/02 05:13:57;;;;;;;3.22;0.80;;;19.90;48.80;;;;;;4904708;29;20101;-64
2023/04/02 05:16:39;;;;;;;2.05;0.77;;;19.90;48.70;;;;;;4933280;29;20058;-64
2023/04/02 05:19:10;;;;;;;1.77;0.70;;;19.90;48.70;;;;;;4921185;29;20393;-64
2023/04/02 05:21:57;;;;;;;2.10;0.60;;;19.90;48.70;;;;;;4904092;29;20055;-64
2023/04/02 05:24:38;;;;;;;1.70;0.70;;;19.90;48.70;;;;;;4935404;29;20058;-64
2023/04/02 05:27:19;;;;;;;1.25;0.70;;;19.90;48.60;;;;;;4904423;29;20535;-64
2023/04/02 05:29:46;;;;;;;2.15;0.70;;;19.90;48.60;;;;;;4919900;29;20519;-64
2023/04/02 05:32:40;;;;;;;2.08;0.60;;;19.90;48.60;;;;;;4936247;29;20043;-65
2023/04/02 05:35:06;;;;;;;2.33;0.65;;;19.80;48.50;;;;;;4933930;29;20064;-64
2023/04/02 05:37:32;;;;;;;1.30;0.60;;;19.80;48.50;;;;;;4903295;29;20052;-65
2023/04/02 05:39:59;;;;;;;2.67;0.73;;;19.90;48.50;;;;;;4919288;29;20808;-64
2023/04/02 05:42:29;;;;;;;1.70;0.77;;;19.90;48.40;;;;;;4919573;29;20062;-64
2023/04/02 05:45:18;;;;;;;2.35;0.85;;;19.90;48.40;;;;;;4935967;29;20058;-64
2023/04/02 05:47:43;;;;;;;3.22;1.10;;;19.90;48.30;;;;;;4921815;29;20039;-64
2023/04/02 05:50:16;;;;;;;1.52;0.68;;;19.90;48.40;;;;;;4919163;29;20495;-64
2023/04/02 05:52:44;;;;;;;1.83;0.77;;;19.90;48.30;;;;;;4935673;29;20058;-65
2023/04/02 05:55:10;;;;;;;1.73;0.70;;;19.90;48.30;;;;;;4919409;29;20115;-64
2023/04/02 05:57:50;;;;;;;3.00;0.70;;;19.90;48.30;;;;;;4936404;29;20132;-65
2023/04/02 06:00:20;;;;;;;2.55;0.80;;;19.90;48.20;;;;;;4904123;29;20510;-65
2023/04/02 06:02:58;;;;;;;2.40;0.85;;;19.90;48.20;;;;;;4903402;29;20058;-65
2023/04/02 06:05:35;;;;;;;2.50;0.70;;;19.90;48.10;;;;;;4919090;29;20043;-65
2023/04/02 06:08:07;;;;;;;1.92;0.60;;;19.90;48.10;;;;;;4902727;29;20570;-65
2023/04/02 06:10:34;;;;;;;3.53;0.80;;;19.90;48.10;;;;;;4936526;29;20039;-64
2023/04/02 06:13:05;;;;;;;2.13;0.60;;;19.90;48.00;;;;;;4917928;29;20056;-64
2023/04/02 06:15:31;;;;;;;1.50;0.65;;;19.90;48.00;;;;;;4903490;29;20099;-65
2023/04/02 06:18:00;;;;;;;0.80;0.50;;;19.90;47.90;;;;;;4918164;29;20499;-64
2023/04/02 06:20:25;;;;;;;2.97;0.80;;;19.90;47.80;;;;;;4935610;29;20051;-65
2023/04/02 06:23:10;;;;;;;1.38;0.70;;;19.90;47.80;;;;;;4935914;29;20067;-65
2023/04/02 06:25:45;;;;;;;0.90;0.50;;;20.00;47.80;;;;;;4920513;29;20499;-65
2023/04/02 06:28:16;;;;;;;1.65;0.68;;;20.00;47.80;;;;;;4918839;29;20475;-64
2023/04/02 06:30:41;;;;;;;1.88;0.70;;;20.00;47.80;;;;;;4919527;29;20130;-65
2023/04/02 06:33:09;;;;;;;2.35;0.60;;;20.00;47.80;;;;;;4917729;29;20131;-64
2023/04/02 06:35:37;;;;;;;2.05;0.57;;;20.00;47.80;;;;;;4903140;29;20051;-65
2023/04/02 06:38:03;;;;;;;2.60;0.70;;;20.00;47.80;;;;;;4918189;29;20094;-65
2023/04/02 06:40:45;;;;;;;2.63;0.60;;;20.00;47.70;;;;;;4918526;29;20123;-65
2023/04/02 06:43:25;;;;;;;1.70;0.52;;;20.00;47.70;;;;;;4918312;29;20503;-65
2023/04/02 06:45:50;;;;;;;2.40;0.60;;;20.00;47.70;;;;;;4919369;29;20083;-65
2023/04/02 06:48:17;;;;;;;2.40;0.70;;;20.00;47.70;;;;;;4917372;29;20404;-65
2023/04/02 06:51:06;;;;;;;3.00;0.88;;;20.00;47.70;;;;;;4918821;29;20095;-65
2023/04/02 06:53:47;;;;;;;1.50;0.47;;;20.00;47.60;;;;;;4918497;29;20051;-65
2023/04/02 06:56:38;;;;;;;3.00;0.50;;;20.00;47.60;;;;;;4917176;29;20459;-65
2023/04/02 06:59:06;;;;;;;2.67;0.63;;;20.00;47.40;;;;;;4934976;29;20083;-65
2023/04/02 07:01:36;;;;;;;1.60;0.47;;;20.10;47.60;;;;;;4902318;29;20051;-64
2023/04/02 07:04:02;;;;;;;2.90;0.60;;;20.00;47.50;;;;;;4935153;29;20047;-65
2023/04/02 07:06:27;;;;;;;2.63;0.68;;;20.00;47.40;;;;;;4935145;29;20139;-64
2023/04/02 07:08:53;;;;;;;3.67;0.60;;;20.10;47.40;;;;;;4917490;29;20048;-65
2023/04/02 07:11:20;;;;;;;2.75;0.60;;;20.10;47.30;;;;;;4934635;29;20047;-67
2023/04/02 07:13:46;;;;;;;2.30;0.50;;;20.10;47.20;;;;;;4935073;29;20166;-64
2023/04/02 07:16:25;;;;;;;2.10;0.60;;;20.10;47.10;;;;;;4934209;29;20126;-64
2023/04/02 07:18:50;;;;;;;2.65;0.70;;;20.10;47.00;;;;;;4935193;29;20519;-64
2023/04/02 07:21:16;;;;;;;1.33;0.52;;;20.10;47.00;;;;;;4934847;29;20051;-65
2023/04/02 07:23:41;;;;;;;1.80;0.50;;;20.10;46.90;;;;;;4934101;29;20039;-64
2023/04/02 07:26:08;;;;;;;2.83;0.70;;;20.10;46.90;;;;;;4934609;29;20551;-65
2023/04/02 07:28:33;;;;;;;1.42;0.70;;;20.10;46.90;;;;;;4935341;29;20464;-65
2023/04/02 07:30:59;;;;;;;2.53;0.80;;;20.20;47.00;;;;;;4920959;29;20107;-64
2023/04/02 07:33:26;;;;;;;2.70;0.68;;;20.20;47.00;;;;;;4921599;29;20036;-65
2023/04/02 07:35:52;;;;;;;1.23;0.40;;;20.20;47.00;;;;;;4938820;29;20500;-64
2023/04/02 07:38:18;;;;;;;1.23;0.45;;;20.20;47.10;;;;;;4937411;29;20397;-65
2023/04/02 07:40:44;;;;;;;2.20;0.70;;;20.20;47.00;;;;;;4939018;29;20514;-65
2023/04/02 07:43:10;;;;;;;1.80;0.60;;;20.20;47.10;;;;;;4938211;29;20042;-65
2023/04/02 07:45:35;;;;;;;1.88;0.60;;;20.20;46.90;;;;;;4938345;29;20063;-65
2023/04/02 07:48:05;;;;;;;3.20;0.70;;;20.30;46.90;;;;;;4938329;29;20036;-66
2023/04/02 07:50:31;;;;;;;1.95;0.40;;;20.30;46.80;;;;;;4938514;29;20054;-65
2023/04/02 07:52:56;;;;;;;1.35;0.40;;;20.30;46.80;;;;;;4938267;29;20118;-65
2023/04/02 07:55:22;;;;;;;1.27;0.45;;;20.30;46.80;;;;;;4921276;29;20056;-64
2023/04/02 07:57:50;;;;;;;3.47;0.50;;;20.30;46.80;;;;;;4937564;29;20051;-65
2023/04/02 08:00:16;;;;;;;2.25;0.57;;;20.30;46.80;;;;;;4938149;29;20453;-64
2023/04/02 08:02:41;;;;;;;2.95;0.50;;;20.30;46.80;;;;;;4938359;29;20109;-64
2023/04/02 08:05:07;;;;;;;1.70;0.73;;;20.30;46.70;;;;;;4937397;29;20427;-65
2023/04/02 08:07:34;;;;;;;1.98;0.47;;;20.30;46.70;;;;;;4938189;29;20047;-65
2023/04/02 08:10:00;;;;;;;2.67;0.52;;;20.30;46.60;;;;;;4938096;29;20040;-65
2023/04/02 08:12:25;;;;;;;1.58;0.40;;;20.40;46.60;;;;;;4937287;29;20086;-65
2023/04/02 08:14:51;;;;;;;1.27;0.43;;;20.40;46.60;;;;;;4921291;29;20048;-65
2023/04/02 08:17:16;;;;;;;2.22;0.50;;;20.40;46.60;;;;;;4937895;29;20051;-65
2023/04/02 08:19:43;;;;;;;1.92;0.50;;;20.40;46.50;;;;;;4937612;29;20042;-65
2023/04/02 08:22:09;;;;;;;0.82;0.40;;;20.40;46.50;;;;;;4937616;29;20040;-65
2023/04/02 08:24:35;;;;;;;1.52;0.50;;;20.40;46.50;;;;;;4938114;29;20518;-65
2023/04/02 08:27:01;;;;;;;0.85;0.40;;;20.40;46.50;;;;;;4936985;29;20044;-66
2023/04/02 08:29:30;;;;;;;3.38;0.60;;;20.50;46.60;;;;;;4938002;29;20060;-65
2023/04/02 08:31:57;;;;;;;1.02;0.45;;;20.50;46.50;;;;;;4937838;29;20040;-65
2023/04/02 08:34:22;;;;;;;1.48;0.60;;;20.50;46.60;;;;;;4920173;29;20055;-66
2023/04/02 08:36:48;;;;;;;1.65;0.60;;;20.50;46.50;;;;;;4937964;29;20188;-65
2023/04/02 08:39:14;;;;;;;1.77;0.50;;;20.50;46.50;;;;;;4936969;29;20048;-65
2023/04/02 08:41:49;;;;;;;1.85;0.50;;;20.50;46.50;;;;;;4937294;29;20050;-65
2023/04/02 08:44:21;;;;;;;2.25;0.60;;;20.50;46.40;;;;;;4937420;29;20043;-65
2023/04/02 08:47:16;;;;;;;1.25;0.60;;;20.50;46.50;;;;;;4937535;29;20135;-65
2023/04/02 08:49:45;;;;;;;1.67;0.40;;;20.50;46.50;;;;;;4905325;29;20107;-65
2023/04/02 08:52:21;;;;;;;2.20;0.70;;;20.50;46.40;;;;;;4937212;29;20043;-65
2023/04/02 08:54:47;;;;;;;1.75;0.50;;;20.50;46.40;;;;;;4937255;29;20039;-65
2023/04/02 08:57:43;;;;;;;1.85;0.50;;;20.50;46.40;;;;;;4920141;29;20389;-66
2023/04/02 09:00:17;;;;;;;1.80;0.60;;;20.50;46.50;;;;;;4921217;29;20411;-66
2023/04/02 09:02:53;;;;;;;1.15;0.50;;;20.50;46.40;;;;;;4936734;29;20052;-65
2023/04/02 09:05:24;;;;;;;1.65;0.50;;;20.50;46.30;;;;;;4920233;29;20465;-66
2023/04/02 09:07:51;;;;;;;1.88;0.63;;;20.60;46.40;;;;;;4920053;29;20187;-65
2023/04/02 09:10:17;;;;;;;1.73;0.80;;;20.60;46.40;;;;;;4920104;29;20500;-66
2023/04/02 09:12:43;;;;;;;2.00;0.55;;;20.60;46.30;;;;;;4919917;29;20063;-66
2023/04/02 09:15:28;;;;;;;1.45;0.50;;;20.60;46.20;;;;;;4919253;29;20048;-66
2023/04/02 09:18:10;;;;;;;1.70;0.60;;;20.60;46.30;;;;;;4920212;29;20047;-65
2023/04/02 09:20:36;;;;;;;2.10;0.68;;;20.60;46.20;;;;;;4920838;29;20055;-65
2023/04/02 09:23:01;;;;;;;3.85;0.75;;;20.60;46.20;;;;;;4919467;29;20071;-66
2023/04/02 09:25:30;;;;;;;2.05;0.55;;;20.60;46.20;;;;;;4920254;29;20079;-66
2023/04/02 09:27:57;;;;;;;2.20;0.50;;;20.60;46.20;;;;;;4937232;29;20075;-67
2023/04/02 09:30:36;;;;;;;1.88;0.40;;;20.60;46.30;;;;;;4936126;29;20388;-66
2023/04/02 09:33:06;;;;;;;2.42;0.60;;;20.60;46.20;;;;;;4903821;29;20052;-66
2023/04/02 09:35:32;;;;;;;4.00;0.60;;;20.60;46.20;;;;;;4936883;29;20047;-66
2023/04/02 09:38:31;;;;;;;1.50;0.50;;;20.70;46.30;;;;;;4902942;29;20047;-66
2023/04/02 09:41:02;;;;;;;2.80;0.50;;;20.70;46.30;;;;;;4936926;29;20091;-66
2023/04/02 09:43:37;;;;;;;1.52;0.68;;;20.70;46.30;;;;;;4935945;29;20055;-66
2023/04/02 09:46:12;;;;;;;2.42;0.50;;;20.70;46.20;;;;;;4919448;29;20039;-66
2023/04/02 09:48:42;;;;;;;1.77;0.50;;;20.70;46.20;;;;;;4936867;29;20050;-66
2023/04/02 09:51:16;;;;;;;1.88;0.60;;;20.70;46.20;;;;;;4918655;29;20094;-67
2023/04/02 09:54:12;;;;;;;1.30;0.80;;;20.70;46.30;;;;;;4936662;29;20047;-66
2023/04/02 09:56:39;;;;;;;2.40;0.70;;;20.70;46.30;;;;;;4924460;29;20412;-66
2023/04/02 09:59:20;;;;;;;1.85;0.50;;;20.70;46.20;;;;;;4935555;29;20048;-66
2023/04/02 10:01:52;;;;;;;2.28;0.65;;;20.70;46.20;;;;;;4936381;29;20048;-66
2023/04/02 10:04:37;;;;;;;2.65;0.50;;;20.70;46.30;;;;;;4919198;29;20044;-66
2023/04/02 10:07:05;;;;;;;1.48;0.55;;;20.70;46.30;;;;;;4903548;29;20059;-66
2023/04/02 10:09:32;;;;;;;1.67;0.40;;;20.70;46.30;;;;;;4919769;29;20071;-66
2023/04/02 10:11:59;;;;;;;1.92;0.60;;;20.70;46.30;;;;;;4917847;29;20507;-66
2023/04/02 10:14:27;;;;;;;2.78;0.50;;;20.70;46.30;;;;;;4919441;29;20047;-66
2023/04/02 10:17:06;;;;;;;1.35;0.60;;;20.70;46.40;;;;;;4919393;29;20048;-66
2023/04/02 10:19:36;;;;;;;1.83;0.55;;;20.70;46.30;;;;;;4935555;29;20055;-66
2023/04/02 10:22:04;;;;;;;2.03;0.40;;;20.70;46.40;;;;;;4903133;29;20506;-66
2023/04/02 10:24:30;;;;;;;;;;;20.70;46.40;;;;;;4919439;29;20051;-66
2023/04/02 10:27:32;;;;;;;1.80;0.60;;;20.70;46.50;;;;;;4918434;29;19926;-66
2023/04/02 10:30:10;;;;;;;1.83;0.40;;;20.70;46.40;;;;;;4935461;29;20411;-66
2023/04/02 10:32:40;;;;;;;1.05;0.47;;;20.70;46.40;;;;;;4935330;29;20048;-66
2023/04/02 10:35:14;;;;;;;2.13;0.47;;;20.70;46.50;;;;;;4918828;29;20051;-66
2023/04/02 10:37:59;;;;;;;1.98;0.40;;;20.70;46.50;;;;;;4919038;29;20074;-66
2023/04/02 10:40:31;;;;;;;0.82;0.40;;;20.70;46.40;;;;;;4918669;29;20126;-66
2023/04/02 10:43:24;;;;;;;2.13;0.50;;;20.70;46.40;;;;;;4919308;29;20055;-66
2023/04/02 10:46:08;;;;;;;1.25;0.50;;;20.70;46.40;;;;;;4918920;29;20054;-66
2023/04/02 10:49:10;;;;;;;1.92;0.55;;;20.70;46.40;;;;;;4920747;29;20043;-67
2023/04/02 10:51:45;;;;;;;1.77;0.45;;;20.70;46.40;;;;;;4905588;29;20051;-66
2023/04/02 10:54:29;;;;;;;2.30;0.70;;;20.60;46.30;;;;;;4934348;29;20062;-66
2023/04/02 10:56:57;;;;;;;1.42;0.55;;;20.70;46.40;;;;;;4920199;29;20075;-66
2023/04/02 10:59:28;;;;;;;1.13;0.30;;;20.60;46.30;;;;;;4935687;29;20048;-66
2023/04/02 11:01:54;;;;;;;1.17;0.52;;;20.70;46.40;;;;;;4902803;29;20403;-66
2023/04/02 11:04:23;;;;;;;1.25;0.40;;;20.60;46.40;;;;;;4918177;29;20488;-66
2023/04/02 11:06:57;;;;;;;1.15;0.40;;;20.70;47.00;;;;;;4902765;29;20051;-66
2023/04/02 11:09:25;;;;;;;1.70;0.40;;;20.70;46.40;;;;;;4918850;29;20048;-66
2023/04/02 11:11:52;;;;;;;0.95;0.30;;;20.70;46.40;;;;;;4918726;29;20051;-66
2023/04/02 11:14:20;;;;;;;1.77;0.50;;;20.70;46.40;;;;;;4903180;29;20102;-67
2023/04/02 11:16:47;;;;;;;1.33;0.50;;;20.70;46.40;;;;;;4917953;29;20547;-66
2023/04/02 11:19:16;;;;;;;0.80;0.40;;;20.70;46.40;;;;;;4917985;29;20039;-66
2023/04/02 11:22:15;;;;;;;2.85;0.55;;;20.70;46.40;;;;;;4934597;29;20383;-67
2023/04/02 11:24:48;;;;;;;2.15;0.40;;;20.70;46.40;;;;;;4912003;29;20181;-66
2023/04/02 11:27:24;;;;;;;1.40;0.40;;;20.70;46.40;;;;;;4918235;29;20054;-66
2023/04/02 11:30:04;;;;;;;1.42;0.43;;;20.70;46.40;;;;;;4902607;29;20054;-67
2023/04/02 11:32:41;;;;;;;1.67;0.55;;;20.60;46.30;;;;;;4918388;29;20050;-67
2023/04/02 11:35:44;;;;;;;0.73;0.47;;;20.60;46.40;;;;;;4918253;29;20451;-66
2023/04/02 11:38:09;;;;;;;1.85;0.50;;;20.60;47.20;;;;;;4917477;29;20069;-66
2023/04/02 11:41:04;;;;;;;1.95;0.70;;;20.60;46.50;;;;;;4917940;29;20052;-67
2023/04/02 11:43:33;;;;;;;1.33;0.52;;;20.60;46.60;;;;;;4922217;29;20048;-67
2023/04/02 11:46:22;;;;;;;1.25;0.43;;;20.60;46.50;;;;;;4935024;29;20075;-67
2023/04/02 11:48:48;;;;;;;1.27;0.40;;;20.60;46.50;;;;;;4924609;29;20070;-66
2023/04/02 11:51:23;;;;;;;1.13;0.40;;;20.60;46.50;;;;;;4934058;29;20047;-67
2023/04/02 11:53:50;;;;;;;2.80;0.47;;;20.70;46.50;;;;;;4903240;29;20495;-67
2023/04/02 11:56:28;;;;;;;0.75;0.30;;;20.60;46.50;;;;;;4934642;29;20044;-66
2023/04/02 11:59:00;;;;;;;2.35;0.60;;;20.70;46.50;;;;;;4916893;29;20504;-67
2023/04/02 12:01:54;;;;;;;7.38;0.70;;;20.60;46.50;;;;;;4918921;29;20048;-66
2023/04/02 12:04:56;;;;;;;5.25;1.00;;;20.60;46.20;;;;;;4934065;29;20047;-67
2023/04/02 12:07:57;;;;;;;5.40;0.70;;;20.60;46.00;;;;;;4916755;29;20051;-67
2023/04/02 12:10:48;;;;;;;5.90;0.70;;;20.60;46.00;;;;;;4896616;29;20124;-67
2023/04/02 12:13:18;;;;;;;2.22;0.40;;;20.60;46.20;;;;;;4878802;29;20093;-67
2023/04/02 12:15:45;;;;;;;4.65;0.70;;;20.60;46.40;;;;;;4930215;29;20043;-66
2023/04/02 12:18:15;;;;;;;3.40;0.85;;;20.60;46.40;;;;;;4933998;29;20047;-69
2023/04/02 12:20:41;;;;;;;6.25;0.70;;;20.60;46.60;;;;;;4935401;29;20103;-67
2023/04/02 12:23:16;;;;;;;3.72;0.68;;;20.60;46.60;;;;;;4915594;29;20392;-66
2023/04/02 12:25:42;;;;;;;3.30;0.50;;;20.70;46.70;;;;;;4901394;29;20536;-66
2023/04/02 12:28:13;;;;;;;2.25;0.50;;;20.70;46.70;;;;;;4934934;29;20165;-66
2023/04/02 12:30:39;;;;;;;3.42;0.50;;;20.70;46.80;;;;;;4935368;29;20071;-66
2023/04/02 12:33:27;;;;;;;3.55;0.60;;;20.70;46.90;;;;;;4922253;29;20069;-66
2023/04/02 12:35:57;;;;;;;;;;;20.70;46.90;;;;;;4920004;29;20051;-66
2023/04/02 12:38:30;;;;;;;1.67;0.40;;;20.70;47.10;;;;;;4937330;29;19923;-66
2023/04/02 12:41:00;;;;;;;1.65;0.50;;;20.70;47.00;;;;;;4933050;29;20557;-67
2023/04/02 12:43:33;;;;;;;2.95;0.60;;;20.70;47.00;;;;;;4918729;29;20048;-66
2023/04/02 12:46:06;;;;;;;10.57;0.93;;;20.70;47.10;;;;;;4904773;29;20498;-67
2023/04/02 12:48:32;;;;;;;2.63;0.52;;;20.70;47.10;;;;;;4935876;29;20563;-66
2023/04/02 12:50:58;;;;;;;2.35;0.47;;;20.80;47.10;;;;;;4917734;29;20051;-66
2023/04/02 12:53:38;;;;;;;3.42;0.45;;;20.80;47.10;;;;;;4929454;29;20055;-68
2023/04/02 12:56:04;;;;;;;2.13;0.50;;;20.80;47.20;;;;;;4937203;29;20062;-68
2023/04/02 12:58:39;;;;;;;4.20;0.73;;;20.80;47.20;;;;;;4919922;29;20074;-67
2023/04/02 13:01:19;;;;;;;3.75;0.55;;;20.80;47.30;;;;;;4936034;29;20052;-68
2023/04/02 13:04:11;;;;;;;2.05;0.40;;;20.80;47.30;;;;;;4936230;29;20069;-67
2023/04/02 13:06:37;;;;;;;2.13;0.65;;;20.80;47.40;;;;;;4936585;29;20492;-67
2023/04/02 13:09:23;;;;;;;6.05;0.60;;;20.90;47.40;;;;;;4934603;29;20047;-67
2023/04/02 13:11:49;;;;;;;2.13;0.50;;;20.90;47.40;;;;;;4935433;29;20098;-68
2023/04/02 13:14:19;;;;;;;3.30;0.47;;;20.90;47.40;;;;;;4935785;29;20055;-69
2023/04/02 13:16:44;;;;;;;3.72;0.52;;;20.90;47.30;;;;;;4936126;29;20039;-68
2023/04/02 13:19:16;;;;;;;2.10;0.40;;;20.90;47.20;;;;;;4934500;29;20055;-67